Time;durP1;ratioP1;P1;durP2;ratioP2;P2;SDS_P1;SDS_P2;PMS_P1;PMS_P2;Temp;Humidity;BMP_temperature;BMP_pressure;BME280_temperature;BME280_humidity;BME280_pressure;Samples;Min_cycle;Max_cycle;Signal;HPM_P1;HPM_P2
2023/12/07 00:02:27;;;;;;;90.93;15.40;;;;;;;1.17;100.00;101043.69;5133810;27;20091;-66
2023/12/07 00:05:44;;;;;;;37.13;14.85;;;;;;;1.28;100.00;101051.38;5133374;27;20098;-66
2023/12/07 00:09:02;;;;;;;33.85;10.90;;;;;;;1.50;100.00;101053.81;5133806;27;20092;-66
2023/12/07 00:12:24;;;;;;;20.17;10.80;;;;;;;1.55;100.00;101050.34;5133793;27;20045;-66
2023/12/07 00:15:49;;;;;;;41.97;12.45;;;;;;;1.27;100.00;101059.94;5133754;27;20095;-66
2023/12/07 00:19:10;;;;;;;38.03;12.93;;;;;;;1.38;100.00;101065.06;5133817;27;20469;-66
2023/12/07 00:22:32;;;;;;;32.92;12.70;;;;;;;1.42;100.00;101074.47;5133983;27;20180;-65
2023/12/07 00:25:41;;;;;;;22.45;11.25;;;;;;;1.35;100.00;101077.97;5133371;28;20069;-66
2023/12/07 00:28:53;;;;;;;14.95;10.85;;;;;;;1.62;100.00;101075.19;5133582;28;20402;-66
2023/12/07 00:32:01;;;;;;;29.42;10.40;;;;;;;1.65;100.00;101076.06;5133633;28;20057;-66
2023/12/07 00:35:28;;;;;;;19.70;11.73;;;;;;;1.84;100.00;101075.06;5133729;28;20081;-66
2023/12/07 00:38:38;;;;;;;16.33;10.23;;;;;;;1.90;100.00;101066.44;5133396;28;20077;-66
2023/12/07 00:42:01;;;;;;;16.40;11.18;;;;;;;1.94;100.00;101074.09;5133514;28;20045;-66
2023/12/07 00:45:25;;;;;;;14.93;10.75;;;;;;;1.91;100.00;101074.13;5133553;27;20108;-66
2023/12/07 00:48:42;;;;;;;23.25;11.20;;;;;;;1.96;100.00;101077.53;5137272;27;20562;-65
2023/12/07 00:52:07;;;;;;;21.27;10.90;;;;;;;1.96;99.78;101076.69;5137508;27;20127;-66
2023/12/07 00:55:21;;;;;;;14.80;9.52;;;;;;;1.41;100.00;101071.94;5137639;27;20088;-66
2023/12/07 00:58:38;;;;;;;16.55;10.15;;;;;;;1.45;100.00;101078.78;5137808;27;20520;-66
2023/12/07 01:01:53;;;;;;;22.38;9.15;;;;;;;1.38;100.00;101083.94;5137222;27;20050;-66
2023/12/07 01:09:22;;;;;;;15.10;9.68;;;;;;;1.69;100.00;101088.06;5137269;27;20068;-65
2023/12/07 01:17:13;;;;;;;19.20;9.63;;;;;;;1.81;100.00;101082.81;5137486;27;20046;-66
2023/12/07 01:25:57;;;;;;;44.08;9.07;;;;;;;1.75;99.74;101090.59;5129496;27;20125;-66
2023/12/07 01:29:55;;;;;;;21.25;7.68;;;;;;;1.61;100.00;101104.44;5053784;28;20051;-66
2023/12/07 01:34:18;;;;;;;12.95;8.45;;;;;;;1.51;100.00;101100.19;5048639;28;20071;-66
2023/12/07 01:47:01;;;;;;;11.90;8.63;;;;;;;1.50;100.00;101103.66;4974527;28;20486;-66
2023/12/07 01:50:27;;;;;;;14.80;9.48;;;;;;;1.45;100.00;101094.22;5004030;28;20052;-66
2023/12/07 01:53:53;;;;;;;17.58;8.68;;;;;;;1.69;100.00;101103.53;5136498;27;20158;-65
2023/12/07 01:57:12;;;;;;;12.05;7.63;;;;;;;1.65;100.00;101114.72;5135699;27;20046;-65
2023/12/07 02:00:27;;;;;;;11.00;7.43;;;;;;;1.67;100.00;101105.28;5136441;27;20151;-66
2023/12/07 02:03:44;;;;;;;24.77;8.95;;;;;;;1.65;100.00;101110.41;5136249;27;20065;-65
2023/12/07 02:07:03;;;;;;;;;;;;;;;1.60;100.00;101107.03;5136972;27;20050;-65
2023/12/07 02:10:32;;;;;;;16.73;8.93;;;;;;;1.58;100.00;101112.19;5136144;27;20265;-65
2023/12/07 02:13:59;;;;;;;13.85;9.05;;;;;;;1.67;100.00;101105.28;5136199;27;20118;-66
2023/12/07 02:17:25;;;;;;;16.05;8.25;;;;;;;1.59;100.00;101108.72;5135949;27;20042;-66
2023/12/07 02:20:51;;;;;;;15.82;8.70;;;;;;;1.47;100.00;101108.81;5135996;27;20085;-66
2023/12/07 02:24:08;;;;;;;43.40;8.68;;;;;;;1.25;100.00;101112.38;5135665;27;20046;-66
2023/12/07 02:27:17;;;;;;;18.80;9.38;;;;;;;1.40;100.00;101112.28;5114223;28;20084;-66
2023/12/07 02:30:25;;;;;;;23.52;8.63;;;;;;;1.49;100.00;101104.50;5115136;28;20054;-65
2023/12/07 02:33:36;;;;;;;11.48;9.43;;;;;;;1.43;100.00;101101.94;5114815;28;20043;-65
2023/12/07 02:36:51;;;;;;;14.63;9.43;;;;;;;1.46;100.00;101106.25;5115004;28;20438;-65
2023/12/07 02:40:12;;;;;;;16.35;8.98;;;;;;;1.43;100.00;101107.09;5115206;28;20116;-65
2023/12/07 02:43:36;;;;;;;20.73;10.35;;;;;;;1.43;100.00;101114.84;5115254;28;20462;-65
2023/12/07 02:47:00;;;;;;;79.82;10.88;;;;;;;1.08;100.00;101122.72;5114910;28;20038;-65
2023/12/07 02:50:15;;;;;;;25.50;9.15;;;;;;;1.38;100.00;101119.19;5114806;28;20046;-65
2023/12/07 02:53:26;;;;;;;20.90;8.20;;;;;;;1.38;100.00;101119.19;5114565;28;20556;-65
2023/12/07 02:56:45;;;;;;;17.58;8.82;;;;;;;1.47;100.00;101116.56;5114769;28;20051;-65
2023/12/07 03:00:14;;;;;;;26.10;10.98;;;;;;;1.38;100.00;101121.75;5114581;28;20069;-65
2023/12/07 03:03:36;;;;;;;32.10;12.88;;;;;;;1.48;100.00;101115.69;5114486;28;20555;-65
2023/12/07 03:07:02;;;;;;;15.10;8.88;;;;;;;1.49;100.00;101125.13;5114545;28;20113;-65
2023/12/07 03:10:26;;;;;;;14.27;9.70;;;;;;;1.48;100.00;101125.13;5113496;28;20505;-65
2023/12/07 03:13:53;;;;;;;43.45;8.95;;;;;;;1.35;100.00;101129.50;5114316;28;20407;-65
2023/12/07 03:17:04;;;;;;;21.30;8.95;;;;;;;1.47;100.00;101132.03;5114052;28;20050;-65
2023/12/07 03:20:26;;;;;;;11.32;8.30;;;;;;;1.38;100.00;101124.34;5114345;28;20096;-65
2023/12/07 03:23:54;;;;;;;12.95;8.77;;;;;;;1.59;100.00;101126.78;5114312;28;20433;-66
2023/12/07 03:27:06;;;;;;;9.57;7.80;;;;;;;1.64;100.00;101126.75;5114030;28;20043;-66
2023/12/07 03:30:25;;;;;;;10.63;8.63;;;;;;;1.70;99.42;101125.88;5113978;28;20159;-65
2023/12/07 03:33:34;;;;;;;10.70;8.50;;;;;;;1.49;99.57;101122.53;5112798;28;20039;-66
2023/12/07 03:36:46;;;;;;;9.50;7.18;;;;;;;1.55;99.32;101134.53;5113103;28;20042;-66
2023/12/07 03:39:50;;;;;;;8.52;6.57;;;;;;;1.62;98.76;101124.19;5112179;28;20146;-66
2023/12/07 03:42:58;;;;;;;8.63;7.18;;;;;;;1.63;98.79;101123.34;5112522;28;20038;-66
2023/12/07 03:46:09;;;;;;;10.20;7.72;;;;;;;1.67;98.44;101126.75;5112826;28;20047;-66
2023/12/07 03:49:17;;;;;;;10.82;8.63;;;;;;;1.46;98.82;101132.00;5112312;28;20089;-66
2023/12/07 03:52:35;;;;;;;10.23;8.25;;;;;;;1.62;98.96;101118.16;5111759;28;20545;-65
2023/12/07 03:55:47;;;;;;;13.68;8.02;;;;;;;1.37;99.78;101122.59;5112016;28;20431;-65
2023/12/07 03:59:03;;;;;;;9.27;7.03;;;;;;;1.33;99.49;101124.34;5113435;28;20089;-65
2023/12/07 04:02:16;;;;;;;10.27;7.70;;;;;;;1.32;100.00;101130.34;5113558;28;20136;-65
2023/12/07 04:05:41;;;;;;;9.77;6.43;;;;;;;1.23;99.79;101134.69;5113390;28;20453;-65
2023/12/07 04:09:05;;;;;;;18.55;7.18;;;;;;;1.12;100.00;101130.44;5112454;28;20055;-65
2023/12/07 04:12:25;;;;;;;10.13;7.10;;;;;;;1.17;100.00;101131.28;5113310;28;20434;-65
2023/12/07 04:15:54;;;;;;;18.05;7.65;;;;;;;1.26;100.00;101124.38;5113224;28;20041;-65
2023/12/07 04:19:20;;;;;;;19.10;11.35;;;;;;;1.38;100.00;101139.78;5093050;28;20043;-66
2023/12/07 04:22:36;;;;;;;18.08;10.25;;;;;;;1.52;100.00;101139.72;5092861;28;20074;-66
2023/12/07 04:26:00;;;;;;;14.98;8.35;;;;;;;1.39;100.00;101139.78;5110119;28;20078;-66
2023/12/07 04:29:09;;;;;;;20.50;7.20;;;;;;;1.39;100.00;101144.06;5117667;28;20164;-65
2023/12/07 04:32:26;;;;;;;11.68;7.15;;;;;;;1.39;99.89;101146.66;5124182;28;20099;-65
2023/12/07 04:35:39;;;;;;;8.60;7.05;;;;;;;1.36;99.88;101147.50;5114242;28;20090;-65
2023/12/07 04:38:57;;;;;;;12.73;6.80;;;;;;;1.31;100.00;101144.13;5107079;28;20031;-65
2023/12/07 04:42:37;;;;;;;14.32;7.10;;;;;;;1.30;100.00;101141.53;5132153;28;20053;-66
2023/12/07 04:45:42;;;;;;;;;;;;;;;1.16;100.00;101152.75;5131072;28;20046;-65
2023/12/07 04:48:48;;;;;;;12.68;6.85;;;;;;;1.22;100.00;101148.44;5131661;28;19937;-65
2023/12/07 04:51:55;;;;;;;12.27;7.35;;;;;;;1.24;100.00;101144.97;5132675;28;20058;-65
2023/12/07 04:55:00;;;;;;;65.53;8.15;;;;;;;1.21;100.00;101151.88;5130513;28;20166;-65
2023/12/07 04:58:08;;;;;;;73.82;9.32;;;;;;;1.14;100.00;101156.19;5131405;28;20073;-66
2023/12/07 05:01:26;;;;;;;;;;;;;;;1.17;100.00;101158.75;5130906;28;20513;-66
2023/12/07 05:05:01;;;;;;;58.67;7.93;;;;;;;1.15;100.00;101163.94;5132001;28;19926;-65
2023/12/07 05:08:23;;;;;;;12.90;7.15;;;;;;;1.19;100.00;101159.63;5130733;28;20111;-65
2023/12/07 05:11:52;;;;;;;;;;;;;;;;;;;;;
2023/12/07 05:15:43;;;;;;;10.88;6.13;;;;;;;0.91;100.00;101164.00;5113390;28;20039;-65
2023/12/07 05:18:54;;;;;;;17.05;7.15;;;;;;;1.04;100.00;101154.50;5130188;28;20112;-66
2023/12/07 05:22:41;;;;;;;18.15;6.13;;;;;;;0.89;100.00;101164.00;5112248;28;20074;-66
2023/12/07 05:25:59;;;;;;;8.00;6.05;;;;;;;0.96;100.00;101157.13;5117423;28;20041;-66
2023/12/07 05:29:19;;;;;;;13.23;5.72;;;;;;;1.00;99.04;101157.97;5132970;28;20048;-64
2023/12/07 05:32:23;;;;;;;10.68;5.55;;;;;;;0.76;99.87;101157.16;5133794;27;20050;-66
2023/12/07 05:35:30;;;;;;;21.13;6.53;;;;;;;0.61;100.00;101160.63;5123654;27;20034;-66
2023/12/07 05:38:40;;;;;;;9.07;6.03;;;;;;;0.75;100.00;101170.03;5135954;27;20050;-66
2023/12/07 05:41:46;;;;;;;7.93;6.25;;;;;;;0.73;100.00;101169.16;5136909;27;20046;-66
2023/12/07 05:44:50;;;;;;;8.32;5.75;;;;;;;0.80;100.00;101163.13;5137080;27;20043;-66
2023/12/07 05:47:55;;;;;;;14.68;7.00;;;;;;;0.96;100.00;101176.84;5136887;27;20115;-66
2023/12/07 05:51:02;;;;;;;25.30;6.63;;;;;;;0.77;100.00;101183.78;5136603;27;20065;-66
2023/12/07 05:54:10;;;;;;;40.38;7.55;;;;;;;0.71;100.00;101181.19;5123778;27;20041;-66
2023/12/07 05:57:21;;;;;;;12.45;7.28;;;;;;;0.80;100.00;101176.91;5136530;27;20091;-66
2023/12/07 06:00:38;;;;;;;13.75;6.55;;;;;;;0.69;100.00;101179.47;5136594;27;20168;-66
2023/12/07 06:03:43;;;;;;;26.67;6.72;;;;;;;0.73;100.00;101175.16;5136486;27;20069;-66
2023/12/07 06:06:56;;;;;;;20.10;7.05;;;;;;;0.82;100.00;101182.03;5136586;27;20050;-66
2023/12/07 06:10:05;;;;;;;30.58;8.52;;;;;;;0.81;100.00;101182.91;5136309;27;20042;-66
2023/12/07 06:13:10;;;;;;;30.80;7.68;;;;;;;0.49;100.00;101177.78;5136263;27;20062;-66
2023/12/07 06:16:28;;;;;;;25.80;7.70;;;;;;;0.28;100.00;101178.63;5123302;27;20083;-66
2023/12/07 06:19:53;;;;;;;14.98;7.15;;;;;;;0.36;100.00;101189.78;5136078;27;20445;-66
2023/12/07 06:23:13;;;;;;;11.90;7.10;;;;;;;0.49;100.00;101199.22;5135948;27;20139;-66
2023/12/07 06:26:18;;;;;;;16.65;6.80;;;;;;;0.72;100.00;101198.34;5135668;27;20090;-64
2023/12/07 06:29:38;;;;;;;17.50;7.25;;;;;;;0.50;100.00;101203.50;5135932;27;20410;-64
2023/12/07 06:32:42;;;;;;;22.02;7.53;;;;;;;0.32;100.00;101203.47;5135788;27;20500;-66
2023/12/07 06:35:53;;;;;;;22.25;7.13;;;;;;;0.12;100.00;101211.19;5123307;27;20099;-66
2023/12/07 06:39:24;;;;;;;29.48;7.47;;;;;;;0.08;100.00;101210.31;5111038;27;20050;-65
2023/12/07 06:42:30;;;;;;;9.90;6.70;;;;;;;0.46;100.00;101217.22;5095004;28;20123;-65
2023/12/07 06:45:33;;;;;;;;;;;;;;;0.73;100.00;101220.66;5095145;28;20439;-66
2023/12/07 06:48:53;;;;;;;13.25;7.47;;;;;;;0.79;100.00;101225.78;5094108;28;19934;-66
2023/12/07 06:52:02;;;;;;;24.67;7.43;;;;;;;0.75;100.00;101229.25;5093636;28;20078;-66
2023/12/07 06:55:19;;;;;;;13.13;6.82;;;;;;;0.65;100.00;101234.38;5094487;28;20105;-64
2023/12/07 06:58:40;;;;;;;9.82;7.82;;;;;;;0.74;100.00;101215.50;5093982;28;20141;-64
2023/12/07 07:01:52;;;;;;;12.90;7.30;;;;;;;0.71;100.00;101227.53;5094370;28;20113;-64
2023/12/07 07:05:15;;;;;;;12.07;6.35;;;;;;;0.83;99.92;101222.34;5094195;28;20492;-64
2023/12/07 07:08:37;;;;;;;12.35;6.80;;;;;;;0.85;99.12;101231.78;5094390;28;20113;-64
2023/12/07 07:11:52;;;;;;;11.63;6.30;;;;;;;0.80;99.25;101224.91;5097060;27;20043;-64
2023/12/07 07:15:13;;;;;;;21.58;7.47;;;;;;;0.74;99.87;101223.22;5107016;27;20168;-65
2023/12/07 07:18:38;;;;;;;30.27;8.95;;;;;;;0.65;99.85;101211.22;5107721;28;20620;-65
2023/12/07 07:22:02;;;;;;;10.65;6.53;;;;;;;0.69;99.79;101205.19;5112510;28;20133;-65
2023/12/07 07:25:28;;;;;;;13.88;6.78;;;;;;;0.75;99.42;101206.06;5107652;28;20320;-65
2023/12/07 07:29:02;;;;;;;8.45;6.68;;;;;;;0.79;98.82;101194.91;5130786;27;20122;-65
2023/12/07 07:32:35;;;;;;;10.00;6.57;;;;;;;0.80;99.15;101186.31;5132159;27;20563;-66
2023/12/07 07:35:49;;;;;;;12.75;6.85;;;;;;;0.88;98.99;101190.59;5133221;27;20066;-65
2023/12/07 07:38:54;;;;;;;8.18;6.50;;;;;;;0.86;97.84;101189.75;5133044;27;20065;-65
2023/12/07 07:41:58;;;;;;;9.05;6.90;;;;;;;0.69;97.68;101189.75;5129645;27;20113;-66
2023/12/07 07:45:02;;;;;;;6.70;5.57;;;;;;;0.75;97.93;101193.19;5131821;27;20505;-65
2023/12/07 07:49:03;;;;;;;9.50;6.78;;;;;;;0.66;97.79;101187.19;5129318;27;20057;-65
2023/12/07 07:52:18;;;;;;;11.93;10.02;;;;;;;0.92;97.63;101178.56;5125173;27;20514;-65
2023/12/07 07:55:25;;;;;;;11.25;9.27;;;;;;;1.06;96.91;101174.25;5106996;27;20122;-65
2023/12/07 07:58:39;;;;;;;9.50;8.02;;;;;;;1.11;96.71;101177.66;5128839;27;20053;-65
2023/12/07 08:01:46;;;;;;;8.43;7.32;;;;;;;1.04;96.99;101177.69;5123633;27;20045;-65
2023/12/07 08:05:01;;;;;;;10.50;7.70;;;;;;;1.17;96.78;101180.22;5121662;27;20177;-65
2023/12/07 08:08:10;;;;;;;10.10;7.82;;;;;;;1.13;96.54;101186.25;5112123;28;20093;-65
2023/12/07 08:11:15;;;;;;;8.95;7.07;;;;;;;1.26;96.42;101169.03;5127951;27;20099;-65
2023/12/07 08:14:42;;;;;;;8.55;6.00;;;;;;;1.25;96.42;101176.78;5129112;27;20046;-65
2023/12/07 08:17:50;;;;;;;7.82;5.25;;;;;;;1.31;95.80;101174.19;5130243;27;20038;-65
2023/12/07 08:21:08;;;;;;;7.63;6.38;;;;;;;1.31;96.02;101163.88;5118585;28;20093;-66
2023/12/07 08:24:35;;;;;;;8.82;6.20;;;;;;;1.29;95.26;101165.59;5111648;28;20116;-66
2023/12/07 08:27:59;;;;;;;9.93;6.13;;;;;;;1.30;95.17;101168.16;5091545;28;20067;-65
2023/12/07 08:31:06;;;;;;;11.63;5.82;;;;;;;1.31;95.07;101164.72;5091397;28;20051;-65
2023/12/07 08:34:24;;;;;;;7.70;5.32;;;;;;;1.33;95.28;101164.72;5091460;28;20376;-65
2023/12/07 08:37:37;;;;;;;7.90;6.30;;;;;;;1.37;95.47;101161.25;5091282;28;20577;-67
2023/12/07 08:40:43;;;;;;;9.50;6.90;;;;;;;1.49;95.34;101168.94;5089932;28;20066;-68
2023/12/07 08:43:52;;;;;;;13.90;8.52;;;;;;;1.56;94.77;101167.19;5089912;28;20047;-67
2023/12/07 08:47:00;;;;;;;9.05;7.15;;;;;;;1.59;94.56;101160.28;5091157;28;20047;-65
2023/12/07 08:50:10;;;;;;;9.77;7.03;;;;;;;1.51;95.23;101161.22;5091807;28;20514;-66
2023/12/07 08:53:15;;;;;;;10.82;6.75;;;;;;;1.52;95.90;101168.91;5091265;28;20062;-65
2023/12/07 08:56:20;;;;;;;9.57;7.57;;;;;;;1.60;95.77;101161.16;5091490;28;20078;-65
2023/12/07 08:59:34;;;;;;;10.32;8.05;;;;;;;1.57;96.42;101166.34;5091619;28;20479;-65
2023/12/07 09:02:41;;;;;;;12.07;9.23;;;;;;;1.57;96.93;101166.34;5091527;28;20513;-65
2023/12/07 09:05:52;;;;;;;10.55;8.48;;;;;;;1.62;96.30;101169.72;5078713;28;20062;-66
2023/12/07 09:09:08;;;;;;;9.90;6.97;;;;;;;1.67;96.08;101180.03;5095022;28;20054;-66
2023/12/07 09:12:32;;;;;;;10.20;8.30;;;;;;;1.67;96.09;101182.59;5107059;28;20054;-68
2023/12/07 09:15:58;;;;;;;10.98;8.40;;;;;;;1.66;96.80;101181.75;5115172;28;20042;-67
2023/12/07 09:19:14;;;;;;;9.70;8.05;;;;;;;1.81;96.90;101180.78;5115378;28;20050;-65
2023/12/07 09:22:20;;;;;;;12.10;8.68;;;;;;;1.92;96.75;101189.34;5108853;28;20058;-65
2023/12/07 09:25:27;;;;;;;18.95;9.00;;;;;;;2.04;96.05;101178.94;5102491;28;20053;-65
2023/12/07 09:28:33;;;;;;;12.50;9.32;;;;;;;2.03;96.14;101182.38;5119476;27;20050;-66
2023/12/07 09:31:37;;;;;;;14.18;10.07;;;;;;;2.00;96.54;101190.13;5135096;27;20128;-66
2023/12/07 09:34:40;;;;;;;13.07;9.98;;;;;;;2.11;96.04;101182.34;5134627;27;20049;-66
2023/12/07 09:37:58;;;;;;;14.95;10.50;;;;;;;2.06;95.90;101189.25;5117396;27;20111;-66
2023/12/07 09:42:13;;;;;;;12.80;8.93;;;;;;;2.00;96.55;101190.13;5107156;28;20104;-66
2023/12/07 09:46:07;;;;;;;12.98;8.55;;;;;;;2.01;95.59;101188.41;5127710;27;20042;-66
2023/12/07 09:49:12;;;;;;;17.05;11.57;;;;;;;2.06;95.24;101192.69;5134930;27;20460;-66
2023/12/07 09:52:16;;;;;;;19.45;13.93;;;;;;;2.15;94.85;101190.91;5134593;27;20069;-65
2023/12/07 09:55:22;;;;;;;13.63;10.40;;;;;;;2.19;93.85;101184.84;5155789;27;20041;-65
2023/12/07 09:58:26;;;;;;;14.60;10.82;;;;;;;2.07;94.51;101181.50;5155261;27;20042;-65
2023/12/07 10:01:31;;;;;;;13.57;10.27;;;;;;;2.25;94.73;101177.06;5155331;27;20057;-65
2023/12/07 10:04:36;;;;;;;13.15;10.10;;;;;;;2.25;93.28;101171.91;5155007;27;20061;-65
2023/12/07 10:07:41;;;;;;;14.25;10.65;;;;;;;1.97;94.22;101161.78;5155849;27;20088;-66
2023/12/07 10:11:11;;;;;;;12.73;9.13;;;;;;;2.01;94.93;101152.28;5155513;27;20191;-66
2023/12/07 10:14:15;;;;;;;12.90;9.95;;;;;;;2.21;95.09;101149.59;5154932;27;20054;-66
2023/12/07 10:17:19;;;;;;;11.70;9.30;;;;;;;2.23;95.02;101145.25;5155046;27;20046;-66
2023/12/07 10:20:26;;;;;;;;;;;;;;;2.36;95.09;101148.59;5155706;27;20483;-65
2023/12/07 10:23:33;;;;;;;13.40;9.60;;;;;;;2.41;94.83;101147.69;5136330;27;19964;-66
2023/12/07 10:26:40;;;;;;;14.38;9.38;;;;;;;2.37;94.80;101143.44;5121529;27;20058;-66
2023/12/07 10:29:45;;;;;;;15.35;9.95;;;;;;;2.43;95.38;101151.13;5133994;27;20125;-66
2023/12/07 10:32:50;;;;;;;14.07;10.95;;;;;;;2.45;95.30;101153.69;5134033;27;20180;-65
2023/12/07 10:35:53;;;;;;;12.68;10.02;;;;;;;2.46;95.46;101150.25;5134092;27;20042;-66
2023/12/07 10:38:56;;;;;;;;;;;;;;;2.42;95.55;101149.38;5134719;27;20050;-65
2023/12/07 10:42:03;;;;;;;12.77;9.45;;;;;;;2.45;94.60;101146.78;5134333;27;19922;-67
2023/12/07 10:45:08;;;;;;;14.13;10.23;;;;;;;2.45;94.34;101149.38;5133593;27;20062;-66
2023/12/07 10:48:11;;;;;;;14.38;10.13;;;;;;;2.51;95.15;101144.16;5133626;27;20046;-66
2023/12/07 10:51:35;;;;;;;13.93;9.70;;;;;;;2.54;94.56;101132.94;5133835;27;20042;-65
2023/12/07 10:55:08;;;;;;;16.05;9.98;;;;;;;2.57;94.77;101127.75;5133612;27;20506;-65
2023/12/07 10:58:14;;;;;;;14.82;11.13;;;;;;;2.52;94.95;101116.59;5133382;27;20058;-66
2023/12/07 11:01:19;;;;;;;13.40;10.20;;;;;;;2.56;95.16;101116.56;5133563;27;20509;-66
2023/12/07 11:04:23;;;;;;;13.88;10.05;;;;;;;2.63;94.32;101106.19;5133544;27;20042;-66
2023/12/07 11:08:06;;;;;;;13.32;10.13;;;;;;;2.63;94.01;101098.44;5119325;27;20043;-66
2023/12/07 11:11:11;;;;;;;;;;;;;;;2.70;94.30;101092.34;5128212;27;20368;-66
2023/12/07 11:14:18;;;;;;;11.05;8.02;;;;;;;2.71;93.29;101083.72;5127161;27;20434;-65
2023/12/07 11:17:26;;;;;;;16.63;10.90;;;;;;;2.70;93.57;101072.53;5124705;27;20100;-66
2023/12/07 11:20:45;;;;;;;12.68;10.68;;;;;;;2.72;93.41;101070.78;5122814;27;20050;-66
2023/12/07 11:23:49;;;;;;;15.65;10.23;;;;;;;2.73;93.40;101067.34;5127995;27;20568;-66
2023/12/07 11:32:03;;;;;;;12.70;10.10;;;;;;;2.87;94.23;101051.69;5132853;27;20108;-66
2023/12/07 11:35:11;;;;;;;12.27;9.10;;;;;;;2.78;93.91;101049.22;5132724;27;20563;-66
2023/12/07 11:38:19;;;;;;;11.13;8.60;;;;;;;2.75;93.31;101041.50;5132815;27;20085;-66
2023/12/07 11:41:22;;;;;;;12.20;9.00;;;;;;;2.79;94.30;101041.44;5132687;27;20038;-66
2023/12/07 11:44:37;;;;;;;10.45;8.20;;;;;;;2.77;93.19;101034.56;5132587;27;20202;-66
2023/12/07 11:47:41;;;;;;;12.27;7.82;;;;;;;2.72;93.09;101024.31;5132710;27;20082;-65
2023/12/07 11:50:55;;;;;;;13.15;9.18;;;;;;;2.80;92.97;101016.47;5132814;27;20179;-66
2023/12/07 11:53:58;;;;;;;11.70;7.47;;;;;;;2.79;92.76;101001.84;5132527;27;20091;-66
2023/12/07 11:57:03;;;;;;;10.85;7.32;;;;;;;2.73;92.53;100996.75;5132415;27;20038;-66
2023/12/07 12:00:08;;;;;;;10.88;7.47;;;;;;;2.78;92.38;100992.41;5132345;27;20062;-66
2023/12/07 12:03:15;;;;;;;10.93;8.50;;;;;;;2.78;92.81;100987.25;5132336;27;20559;-66
2023/12/07 12:06:19;;;;;;;13.52;9.68;;;;;;;2.67;93.97;100984.78;5132291;27;20127;-66
2023/12/07 12:09:24;;;;;;;11.70;10.35;;;;;;;2.69;93.92;100987.34;5132757;27;20042;-66
2023/12/07 12:12:28;;;;;;;13.52;10.95;;;;;;;2.66;94.57;100972.75;5119442;27;20419;-65
2023/12/07 12:15:32;;;;;;;17.48;11.85;;;;;;;2.69;93.46;100977.88;5132137;27;20115;-66
2023/12/07 12:18:37;;;;;;;17.80;12.50;;;;;;;2.66;94.16;100972.75;5132222;27;20042;-66
2023/12/07 12:21:43;;;;;;;16.70;12.20;;;;;;;2.59;94.67;100978.03;5132107;27;20396;-66
2023/12/07 12:24:47;;;;;;;16.67;12.65;;;;;;;2.33;95.90;100974.00;5131478;27;20111;-66
2023/12/07 12:27:53;;;;;;;17.02;13.38;;;;;;;2.45;96.47;100971.25;5105934;27;20103;-66
2023/12/07 12:30:56;;;;;;;16.38;12.65;;;;;;;2.48;96.17;100960.91;5131227;28;20461;-66
2023/12/07 12:34:05;;;;;;;;;;;;;;;2.60;96.68;100959.06;5131603;28;20050;-66
2023/12/07 12:37:09;;;;;;;18.38;13.73;;;;;;;2.60;96.26;100961.66;5130248;28;19919;-65
2023/12/07 12:40:18;;;;;;;17.83;13.77;;;;;;;2.56;95.87;100966.84;5111271;28;20472;-66
2023/12/07 12:43:25;;;;;;;20.02;13.93;;;;;;;2.45;95.80;100960.09;5126683;27;20042;-66
2023/12/07 12:47:02;;;;;;;21.90;14.63;;;;;;;2.48;96.93;100953.16;5137006;27;20095;-66
2023/12/07 12:50:41;;;;;;;22.83;15.23;;;;;;;2.51;97.10;100963.44;5109324;27;20517;-66
2023/12/07 12:53:48;;;;;;;20.42;13.55;;;;;;;2.64;95.76;100958.16;5115427;28;20100;-66
2023/12/07 12:56:52;;;;;;;21.00;14.00;;;;;;;2.63;95.59;100959.03;5120951;27;20488;-65
2023/12/07 12:59:55;;;;;;;19.80;14.20;;;;;;;2.64;96.10;100950.41;5135985;27;20091;-66
2023/12/07 13:03:04;;;;;;;20.17;13.90;;;;;;;2.67;96.23;100947.78;5135675;27;20127;-66
2023/12/07 13:06:07;;;;;;;17.27;13.73;;;;;;;2.60;96.27;100951.31;5136037;27;20077;-66
2023/12/07 13:09:16;;;;;;;14.93;11.95;;;;;;;2.37;96.47;100949.88;5135965;27;20034;-66
2023/12/07 13:12:43;;;;;;;17.77;12.52;;;;;;;2.42;96.90;100945.50;5084575;28;20069;-66
2023/12/07 13:15:46;;;;;;;15.85;13.23;;;;;;;2.30;97.72;100949.09;5092342;28;20101;-66
2023/12/07 13:18:49;;;;;;;;;;;;;;;2.49;96.27;100939.41;5092165;28;20054;-66
2023/12/07 13:21:53;;;;;;;17.03;12.10;;;;;;;2.38;96.45;100933.50;5092795;28;19964;-66
2023/12/07 13:24:56;;;;;;;16.85;13.02;;;;;;;2.38;96.23;100932.66;5090466;28;20690;-67
2023/12/07 13:32:11;;;;;;;15.02;11.93;;;;;;;2.36;97.52;100922.34;5092330;28;20360;-66
2023/12/07 13:35:15;;;;;;;15.05;12.10;;;;;;;2.46;97.22;100918.78;5092236;28;20526;-66
2023/12/07 13:38:20;;;;;;;18.00;13.18;;;;;;;2.41;96.71;100915.41;5092247;28;20082;-66
2023/12/07 13:41:23;;;;;;;14.95;12.25;;;;;;;2.17;98.44;100915.69;5092298;28;20101;-66
2023/12/07 13:44:27;;;;;;;16.50;12.02;;;;;;;2.33;97.48;100907.78;5114852;28;20122;-66
2023/12/07 13:47:36;;;;;;;;;;;;;;;2.43;97.31;100908.50;5114651;28;20042;-66
2023/12/07 13:50:40;;;;;;;16.08;12.73;;;;;;;2.35;97.46;100900.00;5114006;28;19923;-66
2023/12/07 13:53:43;;;;;;;;;;;;;;;2.45;97.48;100906.75;5113420;28;20188;-70
2023/12/07 13:56:47;;;;;;;16.08;12.02;;;;;;;2.50;97.16;100893.78;5109636;28;20361;-65
2023/12/07 13:59:55;;;;;;;18.38;12.82;;;;;;;2.63;96.69;100889.31;5095915;28;20100;-65
2023/12/07 14:07:56;;;;;;;17.30;13.00;;;;;;;2.67;96.25;100870.31;5093377;28;20039;-66
2023/12/07 14:10:59;;;;;;;17.67;14.10;;;;;;;2.70;96.04;100865.13;5104936;28;20085;-66
2023/12/07 14:14:03;;;;;;;17.95;12.88;;;;;;;2.71;96.45;100865.09;5113992;28;20085;-66
2023/12/07 14:17:06;;;;;;;16.52;12.68;;;;;;;2.77;96.62;100856.41;5113203;28;20039;-66
2023/12/07 14:20:11;;;;;;;15.07;12.07;;;;;;;2.79;96.64;100862.41;5113946;28;20082;-64
2023/12/07 14:23:15;;;;;;;17.27;13.27;;;;;;;2.77;96.62;100866.72;5112441;28;20046;-65
2023/12/07 14:26:19;;;;;;;15.85;12.75;;;;;;;2.82;96.43;100857.19;5126910;27;20096;-65
2023/12/07 14:29:27;;;;;;;18.90;13.55;;;;;;;2.75;96.87;100855.59;5131060;27;20104;-64
2023/12/07 14:32:33;;;;;;;18.48;13.95;;;;;;;2.49;97.64;100846.47;5131077;27;20061;-64
2023/12/07 14:35:52;;;;;;;16.02;11.77;;;;;;;2.21;96.61;100839.97;5121273;27;20111;-63
2023/12/07 14:38:57;;;;;;;14.10;11.05;;;;;;;2.51;95.49;100844.72;5128768;27;20394;-63
2023/12/07 14:42:08;;;;;;;14.70;10.93;;;;;;;2.61;94.84;100839.41;5131684;27;20108;-64
2023/12/07 14:45:30;;;;;;;14.02;9.70;;;;;;;2.64;93.54;100841.97;5134404;27;20092;-65
2023/12/07 14:48:40;;;;;;;12.25;9.13;;;;;;;2.61;94.14;100829.94;5134234;27;20080;-64
2023/12/07 14:51:48;;;;;;;12.32;9.90;;;;;;;2.58;93.80;100832.56;5133164;27;20116;-62
2023/12/07 14:54:55;;;;;;;12.30;9.65;;;;;;;2.37;95.12;100820.84;5134196;27;20049;-65
2023/12/07 14:58:00;;;;;;;11.27;8.77;;;;;;;2.31;95.23;100820.91;5133538;27;20084;-63
2023/12/07 15:01:06;;;;;;;11.20;8.23;;;;;;;2.29;94.59;100812.34;5134051;27;20523;-65
2023/12/07 15:04:09;;;;;;;11.85;9.02;;;;;;;2.14;95.76;100807.38;5133934;27;20045;-66
2023/12/07 15:07:19;;;;;;;10.18;8.55;;;;;;;2.07;95.33;100811.75;5127030;27;20064;-66
2023/12/07 15:10:26;;;;;;;12.15;8.82;;;;;;;2.08;94.98;100806.59;5131895;27;20091;-65
2023/12/07 15:13:31;;;;;;;16.15;12.70;;;;;;;2.10;94.25;100797.09;5130916;27;20045;-65
2023/12/07 15:16:36;;;;;;;14.23;10.18;;;;;;;2.17;94.10;100797.00;5131158;27;20514;-66
2023/12/07 15:19:41;;;;;;;12.00;9.55;;;;;;;2.16;92.81;100793.59;5130610;27;20616;-64
2023/12/07 15:22:46;;;;;;;14.00;9.98;;;;;;;2.18;93.08;100788.41;5132736;27;20586;-65
2023/12/07 15:25:49;;;;;;;13.70;10.98;;;;;;;1.80;92.20;100792.34;5133548;27;20069;-64
2023/12/07 15:28:52;;;;;;;15.52;11.20;;;;;;;2.01;93.09;100792.09;5134547;27;20074;-65
2023/12/07 15:31:55;;;;;;;16.67;11.15;;;;;;;2.10;92.47;100796.25;5113938;28;20051;-65
2023/12/07 15:34:59;;;;;;;;;;;;;;;2.19;91.66;100790.13;5114561;28;20396;-64
2023/12/07 15:38:03;;;;;;;;;;;;;;;2.09;91.79;100785.09;5114382;27;19918;-65